sensor_id;sensor_type;location;lat;lon;timestamp;temperature;humidity
68387;DHT22;55338;43.062;25.624;2022-12-18T00:01:02;9.60;99.90
68387;DHT22;55338;43.062;25.624;2022-12-18T00:03:35;9.50;99.90
68387;DHT22;55338;43.062;25.624;2022-12-18T00:06:01;9.50;99.90
68387;DHT22;55338;43.062;25.624;2022-12-18T00:08:28;9.50;99.90
68387;DHT22;55338;43.062;25.624;2022-12-18T00:10:54;9.50;99.90
68387;DHT22;55338;43.062;25.624;2022-12-18T00:13:20;9.50;99.90
68387;DHT22;55338;43.062;25.624;2022-12-18T00:15:46;9.50;99.90
68387;DHT22;55338;43.062;25.624;2022-12-18T00:18:11;9.50;99.90
68387;DHT22;55338;43.062;25.624;2022-12-18T00:20:38;9.50;99.90
68387;DHT22;55338;43.062;25.624;2022-12-18T00:23:05;9.40;99.90
68387;DHT22;55338;43.062;25.624;2022-12-18T00:25:35;9.40;99.90
68387;DHT22;55338;43.062;25.624;2022-12-18T00:28:04;9.40;99.90
68387;DHT22;55338;43.062;25.624;2022-12-18T00:30:30;9.40;99.90
68387;DHT22;55338;43.062;25.624;2022-12-18T00:32:56;9.40;99.90
68387;DHT22;55338;43.062;25.624;2022-12-18T00:35:22;9.40;99.90
68387;DHT22;55338;43.062;25.624;2022-12-18T00:37:48;9.40;99.90
68387;DHT22;55338;43.062;25.624;2022-12-18T00:40:14;9.40;99.90
68387;DHT22;55338;43.062;25.624;2022-12-18T00:42:40;9.40;99.90
68387;DHT22;55338;43.062;25.624;2022-12-18T00:45:31;9.40;99.90
68387;DHT22;55338;43.062;25.624;2022-12-18T00:47:57;9.50;99.90
68387;DHT22;55338;43.062;25.624;2022-12-18T00:50:24;9.40;99.90
68387;DHT22;55338;43.062;25.624;2022-12-18T00:52:50;9.40;99.90
68387;DHT22;55338;43.062;25.624;2022-12-18T00:55:16;9.40;99.90
68387;DHT22;55338;43.062;25.624;2022-12-18T00:57:42;9.40;99.90
68387;DHT22;55338;43.062;25.624;2022-12-18T01:00:12;9.40;99.90
68387;DHT22;55338;43.062;25.624;2022-12-18T01:02:38;9.50;99.90
68387;DHT22;55338;43.062;25.624;2022-12-18T01:05:04;9.40;99.90
68387;DHT22;55338;43.062;25.624;2022-12-18T01:07:30;9.40;99.90
68387;DHT22;55338;43.062;25.624;2022-12-18T01:09:56;9.40;99.90
68387;DHT22;55338;43.062;25.624;2022-12-18T01:12:21;9.40;99.90
68387;DHT22;55338;43.062;25.624;2022-12-18T01:14:47;9.30;99.90
68387;DHT22;55338;43.062;25.624;2022-12-18T01:17:13;9.30;99.90
68387;DHT22;55338;43.062;25.624;2022-12-18T01:19:39;9.20;99.90
68387;DHT22;55338;43.062;25.624;2022-12-18T01:22:05;9.20;99.90
68387;DHT22;55338;43.062;25.624;2022-12-18T01:24:31;9.10;99.90
68387;DHT22;55338;43.062;25.624;2022-12-18T01:26:57;9.20;99.90
68387;DHT22;55338;43.062;25.624;2022-12-18T01:29:23;9.20;99.90
68387;DHT22;55338;43.062;25.624;2022-12-18T01:31:49;9.20;99.90
68387;DHT22;55338;43.062;25.624;2022-12-18T01:34:15;9.10;99.90
68387;DHT22;55338;43.062;25.624;2022-12-18T01:36:41;9.10;99.90
68387;DHT22;55338;43.062;25.624;2022-12-18T01:39:10;9.10;99.90
68387;DHT22;55338;43.062;25.624;2022-12-18T01:41:37;9.20;99.90
68387;DHT22;55338;43.062;25.624;2022-12-18T01:45:00;9.20;99.90
68387;DHT22;55338;43.062;25.624;2022-12-18T01:50:22;9.10;99.90
68387;DHT22;55338;43.062;25.624;2022-12-18T01:52:52;9.20;99.90
68387;DHT22;55338;43.062;25.624;2022-12-18T01:55:23;9.20;99.90
68387;DHT22;55338;43.062;25.624;2022-12-18T01:57:52;9.20;99.90
68387;DHT22;55338;43.062;25.624;2022-12-18T02:00:21;9.20;99.90
68387;DHT22;55338;43.062;25.624;2022-12-18T02:02:48;9.20;99.90
68387;DHT22;55338;43.062;25.624;2022-12-18T02:05:17;9.20;99.90
68387;DHT22;55338;43.062;25.624;2022-12-18T02:16:29;9.10;99.90
68387;DHT22;55338;43.062;25.624;2022-12-18T02:19:12;9.10;99.90
68387;DHT22;55338;43.062;25.624;2022-12-18T02:22:02;9.10;99.90
68387;DHT22;55338;43.062;25.624;2022-12-18T02:24:38;9.10;99.90
68387;DHT22;55338;43.062;25.624;2022-12-18T02:27:08;9.10;99.90
68387;DHT22;55338;43.062;25.624;2022-12-18T02:32:09;9.10;99.90
68387;DHT22;55338;43.062;25.624;2022-12-18T02:34:39;9.10;99.90
68387;DHT22;55338;43.062;25.624;2022-12-18T02:37:09;9.10;99.90
68387;DHT22;55338;43.062;25.624;2022-12-18T02:39:37;9.10;99.90
68387;DHT22;55338;43.062;25.624;2022-12-18T02:42:03;9.10;99.90
68387;DHT22;55338;43.062;25.624;2022-12-18T02:44:34;9.10;99.90
68387;DHT22;55338;43.062;25.624;2022-12-18T02:47:01;9.00;99.90
68387;DHT22;55338;43.062;25.624;2022-12-18T02:49:53;9.00;99.90
68387;DHT22;55338;43.062;25.624;2022-12-18T02:52:31;9.10;99.90
68387;DHT22;55338;43.062;25.624;2022-12-18T03:00:23;9.10;99.90
68387;DHT22;55338;43.062;25.624;2022-12-18T03:03:03;9.00;99.90
68387;DHT22;55338;43.062;25.624;2022-12-18T03:05:41;9.00;99.90
68387;DHT22;55338;43.062;25.624;2022-12-18T03:08:21;8.90;99.90
68387;DHT22;55338;43.062;25.624;2022-12-18T03:11:15;8.80;99.90
68387;DHT22;55338;43.062;25.624;2022-12-18T03:13:46;8.80;99.90
68387;DHT22;55338;43.062;25.624;2022-12-18T03:16:17;8.70;99.90
68387;DHT22;55338;43.062;25.624;2022-12-18T03:18:46;8.70;99.90
68387;DHT22;55338;43.062;25.624;2022-12-18T03:21:14;8.70;99.90
68387;DHT22;55338;43.062;25.624;2022-12-18T03:23:46;8.70;99.90
68387;DHT22;55338;43.062;25.624;2022-12-18T03:26:15;8.70;99.90
68387;DHT22;55338;43.062;25.624;2022-12-18T03:28:51;8.70;99.90
68387;DHT22;55338;43.062;25.624;2022-12-18T03:31:23;8.70;99.90
68387;DHT22;55338;43.062;25.624;2022-12-18T03:33:54;8.60;99.90
68387;DHT22;55338;43.062;25.624;2022-12-18T03:36:20;8.60;99.90
68387;DHT22;55338;43.062;25.624;2022-12-18T03:38:46;8.50;99.90
68387;DHT22;55338;43.062;25.624;2022-12-18T03:41:27;8.50;99.90
68387;DHT22;55338;43.062;25.624;2022-12-18T03:44:11;8.50;99.90
68387;DHT22;55338;43.062;25.624;2022-12-18T03:46:41;8.50;99.90
68387;DHT22;55338;43.062;25.624;2022-12-18T03:49:27;8.50;99.90
68387;DHT22;55338;43.062;25.624;2022-12-18T03:52:08;8.50;99.90
68387;DHT22;55338;43.062;25.624;2022-12-18T03:54:35;8.50;99.90
68387;DHT22;55338;43.062;25.624;2022-12-18T03:57:14;8.40;99.90
68387;DHT22;55338;43.062;25.624;2022-12-18T03:59:43;8.50;99.90
68387;DHT22;55338;43.062;25.624;2022-12-18T04:02:09;8.40;99.90
68387;DHT22;55338;43.062;25.624;2022-12-18T04:04:38;8.40;99.90
68387;DHT22;55338;43.062;25.624;2022-12-18T04:07:05;8.40;99.90
68387;DHT22;55338;43.062;25.624;2022-12-18T04:09:33;8.40;99.90
68387;DHT22;55338;43.062;25.624;2022-12-18T04:11:59;8.40;99.90
68387;DHT22;55338;43.062;25.624;2022-12-18T04:14:25;8.50;99.90
68387;DHT22;55338;43.062;25.624;2022-12-18T04:16:51;8.50;99.90
68387;DHT22;55338;43.062;25.624;2022-12-18T04:19:16;8.40;99.90
68387;DHT22;55338;43.062;25.624;2022-12-18T04:21:42;8.40;99.90
68387;DHT22;55338;43.062;25.624;2022-12-18T04:24:09;8.40;99.90
68387;DHT22;55338;43.062;25.624;2022-12-18T04:26:35;8.40;99.90
68387;DHT22;55338;43.062;25.624;2022-12-18T04:29:01;8.30;99.90
68387;DHT22;55338;43.062;25.624;2022-12-18T04:31:26;8.30;99.90
68387;DHT22;55338;43.062;25.624;2022-12-18T04:33:52;8.30;99.90
68387;DHT22;55338;43.062;25.624;2022-12-18T04:36:18;8.30;99.90
68387;DHT22;55338;43.062;25.624;2022-12-18T04:38:44;8.30;99.90
68387;DHT22;55338;43.062;25.624;2022-12-18T04:41:10;8.30;99.90
68387;DHT22;55338;43.062;25.624;2022-12-18T04:43:35;8.30;99.90
68387;DHT22;55338;43.062;25.624;2022-12-18T04:46:06;8.30;99.90
68387;DHT22;55338;43.062;25.624;2022-12-18T04:48:33;8.30;99.90
68387;DHT22;55338;43.062;25.624;2022-12-18T04:50:58;8.30;99.90
68387;DHT22;55338;43.062;25.624;2022-12-18T04:53:24;8.30;99.90
68387;DHT22;55338;43.062;25.624;2022-12-18T04:55:50;8.30;99.90
68387;DHT22;55338;43.062;25.624;2022-12-18T04:58:16;8.20;99.90
68387;DHT22;55338;43.062;25.624;2022-12-18T05:00:42;8.20;99.90
68387;DHT22;55338;43.062;25.624;2022-12-18T05:03:07;8.20;99.90
68387;DHT22;55338;43.062;25.624;2022-12-18T05:05:34;8.20;99.90
68387;DHT22;55338;43.062;25.624;2022-12-18T05:08:00;8.20;99.90
68387;DHT22;55338;43.062;25.624;2022-12-18T05:10:26;8.20;99.90
68387;DHT22;55338;43.062;25.624;2022-12-18T05:12:53;8.20;99.90
68387;DHT22;55338;43.062;25.624;2022-12-18T05:15:32;8.20;99.90
68387;DHT22;55338;43.062;25.624;2022-12-18T05:17:58;8.10;99.90
68387;DHT22;55338;43.062;25.624;2022-12-18T05:20:25;8.20;99.90
68387;DHT22;55338;43.062;25.624;2022-12-18T05:22:51;8.20;99.90
68387;DHT22;55338;43.062;25.624;2022-12-18T05:25:18;8.20;99.90
68387;DHT22;55338;43.062;25.624;2022-12-18T05:27:45;8.20;99.90
68387;DHT22;55338;43.062;25.624;2022-12-18T05:30:12;8.20;99.90
68387;DHT22;55338;43.062;25.624;2022-12-18T05:32:38;8.10;99.90
68387;DHT22;55338;43.062;25.624;2022-12-18T05:35:05;8.10;99.90
68387;DHT22;55338;43.062;25.624;2022-12-18T05:37:31;7.80;99.90
68387;DHT22;55338;43.062;25.624;2022-12-18T05:39:57;8.10;99.90
68387;DHT22;55338;43.062;25.624;2022-12-18T05:42:23;8.10;99.90
68387;DHT22;55338;43.062;25.624;2022-12-18T05:44:49;8.10;99.90
68387;DHT22;55338;43.062;25.624;2022-12-18T05:47:15;8.10;99.90
68387;DHT22;55338;43.062;25.624;2022-12-18T05:49:40;8.00;99.90
68387;DHT22;55338;43.062;25.624;2022-12-18T05:52:06;8.00;99.90
68387;DHT22;55338;43.062;25.624;2022-12-18T05:54:32;8.00;99.90
68387;DHT22;55338;43.062;25.624;2022-12-18T05:56:58;8.00;99.90
68387;DHT22;55338;43.062;25.624;2022-12-18T05:59:24;8.00;99.90
68387;DHT22;55338;43.062;25.624;2022-12-18T06:01:49;8.00;99.90
68387;DHT22;55338;43.062;25.624;2022-12-18T06:04:15;8.00;99.90
68387;DHT22;55338;43.062;25.624;2022-12-18T06:06:41;8.00;99.90
68387;DHT22;55338;43.062;25.624;2022-12-18T06:09:07;8.00;99.90
68387;DHT22;55338;43.062;25.624;2022-12-18T06:11:36;8.10;99.90
68387;DHT22;55338;43.062;25.624;2022-12-18T06:14:03;8.10;99.90
68387;DHT22;55338;43.062;25.624;2022-12-18T06:16:29;8.10;99.90
68387;DHT22;55338;43.062;25.624;2022-12-18T06:19:00;8.00;99.90
68387;DHT22;55338;43.062;25.624;2022-12-18T06:21:27;8.00;99.90
68387;DHT22;55338;43.062;25.624;2022-12-18T06:23:53;8.00;99.90
68387;DHT22;55338;43.062;25.624;2022-12-18T06:26:19;8.00;99.90
68387;DHT22;55338;43.062;25.624;2022-12-18T06:28:45;8.00;99.90
68387;DHT22;55338;43.062;25.624;2022-12-18T06:31:11;8.00;99.90
68387;DHT22;55338;43.062;25.624;2022-12-18T06:33:37;8.10;99.90
68387;DHT22;55338;43.062;25.624;2022-12-18T06:36:06;8.10;99.90
68387;DHT22;55338;43.062;25.624;2022-12-18T06:38:34;8.10;99.90
68387;DHT22;55338;43.062;25.624;2022-12-18T06:41:00;8.10;99.90
68387;DHT22;55338;43.062;25.624;2022-12-18T06:43:26;8.20;99.90
68387;DHT22;55338;43.062;25.624;2022-12-18T06:45:58;8.20;99.90
68387;DHT22;55338;43.062;25.624;2022-12-18T06:48:24;8.30;99.90
68387;DHT22;55338;43.062;25.624;2022-12-18T06:50:50;8.30;99.90
68387;DHT22;55338;43.062;25.624;2022-12-18T06:53:16;8.30;99.90
68387;DHT22;55338;43.062;25.624;2022-12-18T06:55:42;8.30;99.90
68387;DHT22;55338;43.062;25.624;2022-12-18T06:58:08;8.30;99.90
68387;DHT22;55338;43.062;25.624;2022-12-18T07:00:34;8.30;99.90
68387;DHT22;55338;43.062;25.624;2022-12-18T07:03:00;8.40;99.90
68387;DHT22;55338;43.062;25.624;2022-12-18T07:05:25;8.40;99.90
68387;DHT22;55338;43.062;25.624;2022-12-18T07:07:51;8.30;99.90
68387;DHT22;55338;43.062;25.624;2022-12-18T07:10:17;8.40;99.90
68387;DHT22;55338;43.062;25.624;2022-12-18T07:12:43;8.40;99.90
68387;DHT22;55338;43.062;25.624;2022-12-18T07:15:09;8.40;99.90
68387;DHT22;55338;43.062;25.624;2022-12-18T07:17:35;8.40;99.90
68387;DHT22;55338;43.062;25.624;2022-12-18T07:20:01;8.40;99.90
68387;DHT22;55338;43.062;25.624;2022-12-18T07:22:27;8.40;99.90
68387;DHT22;55338;43.062;25.624;2022-12-18T07:24:53;8.40;99.90
68387;DHT22;55338;43.062;25.624;2022-12-18T07:27:18;8.40;99.90
68387;DHT22;55338;43.062;25.624;2022-12-18T07:29:44;8.40;99.90
68387;DHT22;55338;43.062;25.624;2022-12-18T07:32:10;8.40;99.90
68387;DHT22;55338;43.062;25.624;2022-12-18T07:34:36;8.40;99.90
68387;DHT22;55338;43.062;25.624;2022-12-18T07:37:01;8.40;99.90
68387;DHT22;55338;43.062;25.624;2022-12-18T07:39:27;8.40;99.90
68387;DHT22;55338;43.062;25.624;2022-12-18T07:41:53;8.50;99.90
68387;DHT22;55338;43.062;25.624;2022-12-18T07:44:37;8.50;99.90
68387;DHT22;55338;43.062;25.624;2022-12-18T07:47:03;8.60;99.90
68387;DHT22;55338;43.062;25.624;2022-12-18T07:49:29;8.70;99.90
68387;DHT22;55338;43.062;25.624;2022-12-18T07:51:55;8.50;99.90
68387;DHT22;55338;43.062;25.624;2022-12-18T07:54:22;8.50;99.90
68387;DHT22;55338;43.062;25.624;2022-12-18T07:56:48;8.50;99.90
68387;DHT22;55338;43.062;25.624;2022-12-18T07:59:14;8.60;99.90
68387;DHT22;55338;43.062;25.624;2022-12-18T08:01:40;8.70;99.90
68387;DHT22;55338;43.062;25.624;2022-12-18T08:04:06;8.70;99.90
68387;DHT22;55338;43.062;25.624;2022-12-18T08:06:32;8.80;99.90
68387;DHT22;55338;43.062;25.624;2022-12-18T08:08:57;8.90;99.90
68387;DHT22;55338;43.062;25.624;2022-12-18T08:11:25;9.00;99.90
68387;DHT22;55338;43.062;25.624;2022-12-18T08:13:51;9.10;99.90
68387;DHT22;55338;43.062;25.624;2022-12-18T08:16:18;9.10;99.90
68387;DHT22;55338;43.062;25.624;2022-12-18T08:18:43;9.20;99.90
68387;DHT22;55338;43.062;25.624;2022-12-18T08:21:10;9.20;99.90
68387;DHT22;55338;43.062;25.624;2022-12-18T08:23:36;9.20;99.90
68387;DHT22;55338;43.062;25.624;2022-12-18T08:26:01;9.20;99.90
68387;DHT22;55338;43.062;25.624;2022-12-18T08:28:27;9.20;99.00
68387;DHT22;55338;43.062;25.624;2022-12-18T08:30:53;9.20;99.70
68387;DHT22;55338;43.062;25.624;2022-12-18T08:33:19;9.30;97.70
68387;DHT22;55338;43.062;25.624;2022-12-18T08:35:44;9.30;98.10
68387;DHT22;55338;43.062;25.624;2022-12-18T08:38:10;9.30;96.90
68387;DHT22;55338;43.062;25.624;2022-12-18T08:40:36;9.30;96.60
68387;DHT22;55338;43.062;25.624;2022-12-18T08:43:01;9.30;96.20
68387;DHT22;55338;43.062;25.624;2022-12-18T08:45:46;9.30;95.60
68387;DHT22;55338;43.062;25.624;2022-12-18T08:48:12;9.20;92.30
68387;DHT22;55338;43.062;25.624;2022-12-18T08:50:37;9.20;93.80
68387;DHT22;55338;43.062;25.624;2022-12-18T08:53:03;9.20;94.10
68387;DHT22;55338;43.062;25.624;2022-12-18T08:55:29;9.30;94.40
68387;DHT22;55338;43.062;25.624;2022-12-18T08:57:55;9.20;94.40
68387;DHT22;55338;43.062;25.624;2022-12-18T09:00:20;9.30;95.50
68387;DHT22;55338;43.062;25.624;2022-12-18T09:02:46;9.30;95.00
68387;DHT22;55338;43.062;25.624;2022-12-18T09:05:12;9.30;94.20
68387;DHT22;55338;43.062;25.624;2022-12-18T09:07:38;9.30;91.30
68387;DHT22;55338;43.062;25.624;2022-12-18T09:10:04;9.30;91.20
68387;DHT22;55338;43.062;25.624;2022-12-18T09:12:30;9.40;94.50
68387;DHT22;55338;43.062;25.624;2022-12-18T09:14:57;9.40;92.50
68387;DHT22;55338;43.062;25.624;2022-12-18T09:17:22;9.40;89.80
68387;DHT22;55338;43.062;25.624;2022-12-18T09:19:48;9.40;89.90
68387;DHT22;55338;43.062;25.624;2022-12-18T09:22:14;9.40;90.30
68387;DHT22;55338;43.062;25.624;2022-12-18T09:24:40;9.50;91.20
68387;DHT22;55338;43.062;25.624;2022-12-18T09:27:06;9.50;90.20
68387;DHT22;55338;43.062;25.624;2022-12-18T09:29:32;9.50;89.50
68387;DHT22;55338;43.062;25.624;2022-12-18T09:31:58;9.50;91.40
68387;DHT22;55338;43.062;25.624;2022-12-18T09:34:23;9.50;91.60
68387;DHT22;55338;43.062;25.624;2022-12-18T09:36:50;9.50;90.80
68387;DHT22;55338;43.062;25.624;2022-12-18T09:39:15;9.60;89.60
68387;DHT22;55338;43.062;25.624;2022-12-18T09:41:47;9.50;86.40
68387;DHT22;55338;43.062;25.624;2022-12-18T09:46:52;9.50;87.10
68387;DHT22;55338;43.062;25.624;2022-12-18T09:49:22;9.50;85.90
68387;DHT22;55338;43.062;25.624;2022-12-18T09:52:09;9.40;84.70
68387;DHT22;55338;43.062;25.624;2022-12-18T09:54:40;9.40;84.10
68387;DHT22;55338;43.062;25.624;2022-12-18T09:57:14;9.50;86.00
68387;DHT22;55338;43.062;25.624;2022-12-18T09:59:42;9.50;85.00
68387;DHT22;55338;43.062;25.624;2022-12-18T10:02:15;9.50;85.40
68387;DHT22;55338;43.062;25.624;2022-12-18T10:04:42;9.70;85.70
68387;DHT22;55338;43.062;25.624;2022-12-18T10:07:38;9.80;85.60
68387;DHT22;55338;43.062;25.624;2022-12-18T10:12:57;10.00;83.70
68387;DHT22;55338;43.062;25.624;2022-12-18T10:21:00;10.60;81.40
68387;DHT22;55338;43.062;25.624;2022-12-18T10:26:13;10.70;80.10
68387;DHT22;55338;43.062;25.624;2022-12-18T10:28:40;10.60;78.00
68387;DHT22;55338;43.062;25.624;2022-12-18T10:31:12;10.60;78.20
68387;DHT22;55338;43.062;25.624;2022-12-18T10:33:40;10.60;79.70
68387;DHT22;55338;43.062;25.624;2022-12-18T10:36:06;10.60;79.30
68387;DHT22;55338;43.062;25.624;2022-12-18T10:38:33;10.60;79.80
68387;DHT22;55338;43.062;25.624;2022-12-18T10:43:33;10.40;77.70
68387;DHT22;55338;43.062;25.624;2022-12-18T10:51:06;10.40;81.20
68387;DHT22;55338;43.062;25.624;2022-12-18T10:53:34;10.40;79.50
68387;DHT22;55338;43.062;25.624;2022-12-18T10:56:03;10.40;79.80
68387;DHT22;55338;43.062;25.624;2022-12-18T10:58:38;10.40;79.40
68387;DHT22;55338;43.062;25.624;2022-12-18T11:01:07;10.30;78.80
68387;DHT22;55338;43.062;25.624;2022-12-18T11:08:37;10.40;79.40
68387;DHT22;55338;43.062;25.624;2022-12-18T11:11:09;10.40;79.60
68387;DHT22;55338;43.062;25.624;2022-12-18T11:13:43;10.40;80.60
68387;DHT22;55338;43.062;25.624;2022-12-18T11:16:20;10.40;78.40
68387;DHT22;55338;43.062;25.624;2022-12-18T11:18:46;10.60;78.30
68387;DHT22;55338;43.062;25.624;2022-12-18T11:21:13;10.70;77.70
68387;DHT22;55338;43.062;25.624;2022-12-18T11:26:13;11.10;76.20
68387;DHT22;55338;43.062;25.624;2022-12-18T11:28:48;11.30;78.00
68387;DHT22;55338;43.062;25.624;2022-12-18T11:31:19;11.40;75.10
68387;DHT22;55338;43.062;25.624;2022-12-18T11:36:22;11.40;75.70
68387;DHT22;55338;43.062;25.624;2022-12-18T11:38:49;11.30;73.00
68387;DHT22;55338;43.062;25.624;2022-12-18T11:41:28;11.20;72.70
68387;DHT22;55338;43.062;25.624;2022-12-18T11:44:43;11.00;73.30
68387;DHT22;55338;43.062;25.624;2022-12-18T11:50:12;10.50;76.10
68387;DHT22;55338;43.062;25.624;2022-12-18T11:52:40;10.40;76.20
68387;DHT22;55338;43.062;25.624;2022-12-18T12:00:38;10.30;74.70
68387;DHT22;55338;43.062;25.624;2022-12-18T12:05:58;10.10;75.10
68387;DHT22;55338;43.062;25.624;2022-12-18T12:25:37;9.50;79.60
68387;DHT22;55338;43.062;25.624;2022-12-18T12:36:19;9.20;80.10
68387;DHT22;55338;43.062;25.624;2022-12-18T12:38:55;9.10;81.50
68387;DHT22;55338;43.062;25.624;2022-12-18T12:41:25;9.00;80.80
68387;DHT22;55338;43.062;25.624;2022-12-18T12:44:39;8.90;82.20
68387;DHT22;55338;43.062;25.624;2022-12-18T12:47:11;8.90;82.40
68387;DHT22;55338;43.062;25.624;2022-12-18T12:49:39;8.80;81.50
68387;DHT22;55338;43.062;25.624;2022-12-18T12:52:10;8.80;83.50
68387;DHT22;55338;43.062;25.624;2022-12-18T12:54:38;8.80;83.10
68387;DHT22;55338;43.062;25.624;2022-12-18T13:02:54;8.60;83.20
68387;DHT22;55338;43.062;25.624;2022-12-18T13:08:05;8.70;84.20
68387;DHT22;55338;43.062;25.624;2022-12-18T13:10:37;8.70;84.80
68387;DHT22;55338;43.062;25.624;2022-12-18T13:13:11;8.70;82.70
68387;DHT22;55338;43.062;25.624;2022-12-18T13:15:46;8.80;84.20
68387;DHT22;55338;43.062;25.624;2022-12-18T13:18:17;8.80;83.20
68387;DHT22;55338;43.062;25.624;2022-12-18T13:23:35;8.60;82.50
68387;DHT22;55338;43.062;25.624;2022-12-18T13:31:14;8.50;81.10
68387;DHT22;55338;43.062;25.624;2022-12-18T13:33:45;8.40;82.30
68387;DHT22;55338;43.062;25.624;2022-12-18T13:36:29;8.40;82.60
68387;DHT22;55338;43.062;25.624;2022-12-18T13:41:40;8.20;83.40
68387;DHT22;55338;43.062;25.624;2022-12-18T13:44:26;8.10;84.00
68387;DHT22;55338;43.062;25.624;2022-12-18T13:46:53;8.10;84.20
68387;DHT22;55338;43.062;25.624;2022-12-18T13:49:24;8.10;85.80
68387;DHT22;55338;43.062;25.624;2022-12-18T13:51:55;8.10;84.80
68387;DHT22;55338;43.062;25.624;2022-12-18T13:54:39;8.00;84.30
68387;DHT22;55338;43.062;25.624;2022-12-18T13:57:26;8.00;85.30
68387;DHT22;55338;43.062;25.624;2022-12-18T13:59:52;7.90;86.30
68387;DHT22;55338;43.062;25.624;2022-12-18T14:02:22;7.90;86.30
68387;DHT22;55338;43.062;25.624;2022-12-18T14:04:49;7.90;86.40
68387;DHT22;55338;43.062;25.624;2022-12-18T14:07:16;8.00;86.20
68387;DHT22;55338;43.062;25.624;2022-12-18T14:09:45;7.90;87.30
68387;DHT22;55338;43.062;25.624;2022-12-18T14:12:17;7.90;87.10
68387;DHT22;55338;43.062;25.624;2022-12-18T14:15:03;7.80;88.00
68387;DHT22;55338;43.062;25.624;2022-12-18T14:17:31;7.70;88.40
68387;DHT22;55338;43.062;25.624;2022-12-18T14:19:57;7.70;88.10
68387;DHT22;55338;43.062;25.624;2022-12-18T14:22:25;7.70;88.10
68387;DHT22;55338;43.062;25.624;2022-12-18T14:25:15;7.70;88.60
68387;DHT22;55338;43.062;25.624;2022-12-18T14:30:48;7.60;89.50
68387;DHT22;55338;43.062;25.624;2022-12-18T14:33:17;7.50;90.50
68387;DHT22;55338;43.062;25.624;2022-12-18T14:38:35;7.40;90.60
68387;DHT22;55338;43.062;25.624;2022-12-18T14:41:12;7.40;90.30
68387;DHT22;55338;43.062;25.624;2022-12-18T14:43:40;7.40;90.90
68387;DHT22;55338;43.062;25.624;2022-12-18T14:48:55;7.40;91.10
68387;DHT22;55338;43.062;25.624;2022-12-18T14:51:23;7.40;91.30
68387;DHT22;55338;43.062;25.624;2022-12-18T14:54:05;7.30;90.80
68387;DHT22;55338;43.062;25.624;2022-12-18T14:56:37;7.40;91.60
68387;DHT22;55338;43.062;25.624;2022-12-18T14:59:25;7.40;90.90
68387;DHT22;55338;43.062;25.624;2022-12-18T15:09:38;7.40;91.80
68387;DHT22;55338;43.062;25.624;2022-12-18T15:12:04;7.40;92.40
68387;DHT22;55338;43.062;25.624;2022-12-18T15:14:39;7.50;91.40
68387;DHT22;55338;43.062;25.624;2022-12-18T15:17:14;7.40;91.90
68387;DHT22;55338;43.062;25.624;2022-12-18T15:19:43;7.40;93.20
68387;DHT22;55338;43.062;25.624;2022-12-18T15:22:35;7.50;92.90
68387;DHT22;55338;43.062;25.624;2022-12-18T15:25:04;7.40;92.10
68387;DHT22;55338;43.062;25.624;2022-12-18T15:27:47;7.40;92.40
68387;DHT22;55338;43.062;25.624;2022-12-18T15:30:18;7.50;92.90
68387;DHT22;55338;43.062;25.624;2022-12-18T15:32:44;7.40;93.00
68387;DHT22;55338;43.062;25.624;2022-12-18T15:37:40;7.30;94.20
68387;DHT22;55338;43.062;25.624;2022-12-18T15:40:08;7.30;93.60
68387;DHT22;55338;43.062;25.624;2022-12-18T15:42:37;7.30;94.40
68387;DHT22;55338;43.062;25.624;2022-12-18T15:45:21;7.30;96.30
68387;DHT22;55338;43.062;25.624;2022-12-18T15:47:46;7.30;95.50
68387;DHT22;55338;43.062;25.624;2022-12-18T15:50:12;7.20;94.60
68387;DHT22;55338;43.062;25.624;2022-12-18T15:52:43;7.10;95.30
68387;DHT22;55338;43.062;25.624;2022-12-18T15:55:17;7.10;95.70
68387;DHT22;55338;43.062;25.624;2022-12-18T15:58:03;7.10;96.70
68387;DHT22;55338;43.062;25.624;2022-12-18T16:00:29;7.10;97.20
68387;DHT22;55338;43.062;25.624;2022-12-18T16:02:55;7.10;96.80
68387;DHT22;55338;43.062;25.624;2022-12-18T16:05:21;7.00;97.50
68387;DHT22;55338;43.062;25.624;2022-12-18T16:07:47;7.00;97.70
68387;DHT22;55338;43.062;25.624;2022-12-18T16:10:13;7.00;98.90
68387;DHT22;55338;43.062;25.624;2022-12-18T16:12:39;6.90;98.60
68387;DHT22;55338;43.062;25.624;2022-12-18T16:15:06;6.90;98.00
68387;DHT22;55338;43.062;25.624;2022-12-18T16:17:32;6.90;98.40
68387;DHT22;55338;43.062;25.624;2022-12-18T16:19:58;6.90;98.40
68387;DHT22;55338;43.062;25.624;2022-12-18T16:22:25;6.90;98.20
68387;DHT22;55338;43.062;25.624;2022-12-18T16:24:53;6.80;97.70
68387;DHT22;55338;43.062;25.624;2022-12-18T16:27:19;6.80;98.20
68387;DHT22;55338;43.062;25.624;2022-12-18T16:29:45;6.80;98.80
68387;DHT22;55338;43.062;25.624;2022-12-18T16:32:22;6.80;99.40
68387;DHT22;55338;43.062;25.624;2022-12-18T16:34:48;6.80;98.90
68387;DHT22;55338;43.062;25.624;2022-12-18T16:37:14;6.80;98.30
68387;DHT22;55338;43.062;25.624;2022-12-18T16:39:41;6.80;98.80
68387;DHT22;55338;43.062;25.624;2022-12-18T16:44:38;6.70;97.80
68387;DHT22;55338;43.062;25.624;2022-12-18T16:47:03;6.60;98.00
68387;DHT22;55338;43.062;25.624;2022-12-18T16:49:30;6.70;98.50
68387;DHT22;55338;43.062;25.624;2022-12-18T16:51:55;6.70;97.70
68387;DHT22;55338;43.062;25.624;2022-12-18T16:54:21;6.70;99.20
68387;DHT22;55338;43.062;25.624;2022-12-18T16:56:47;6.70;99.60
68387;DHT22;55338;43.062;25.624;2022-12-18T16:59:15;6.70;98.50
68387;DHT22;55338;43.062;25.624;2022-12-18T17:01:41;6.70;98.00
68387;DHT22;55338;43.062;25.624;2022-12-18T17:04:07;6.70;98.40
68387;DHT22;55338;43.062;25.624;2022-12-18T17:06:35;6.70;98.40
68387;DHT22;55338;43.062;25.624;2022-12-18T17:09:06;6.70;98.70
68387;DHT22;55338;43.062;25.624;2022-12-18T17:11:33;6.60;99.90
68387;DHT22;55338;43.062;25.624;2022-12-18T17:14:06;6.60;99.50
68387;DHT22;55338;43.062;25.624;2022-12-18T17:16:32;6.60;99.20
68387;DHT22;55338;43.062;25.624;2022-12-18T17:18:58;6.50;99.60
68387;DHT22;55338;43.062;25.624;2022-12-18T17:21:24;6.50;99.80
68387;DHT22;55338;43.062;25.624;2022-12-18T17:23:49;6.50;99.70
68387;DHT22;55338;43.062;25.624;2022-12-18T17:26:15;6.50;99.90
68387;DHT22;55338;43.062;25.624;2022-12-18T17:28:41;6.50;99.90
68387;DHT22;55338;43.062;25.624;2022-12-18T17:31:21;6.60;99.90
68387;DHT22;55338;43.062;25.624;2022-12-18T17:33:47;6.60;99.90
68387;DHT22;55338;43.062;25.624;2022-12-18T17:36:14;6.60;99.90
68387;DHT22;55338;43.062;25.624;2022-12-18T17:38:40;6.60;99.90
68387;DHT22;55338;43.062;25.624;2022-12-18T17:41:09;6.50;99.90
68387;DHT22;55338;43.062;25.624;2022-12-18T17:43:35;6.60;99.20
68387;DHT22;55338;43.062;25.624;2022-12-18T17:46:06;6.60;98.80
68387;DHT22;55338;43.062;25.624;2022-12-18T17:48:32;6.60;98.40
68387;DHT22;55338;43.062;25.624;2022-12-18T17:51:02;6.50;99.60